createdAt,value
2022-07-31T00:00:46.853Z,5.03
2022-07-31T00:03:49.387Z,6.57
2022-07-31T00:06:52.120Z,4.15
2022-07-31T00:09:55.527Z,3.83
2022-07-31T00:12:57.661Z,3.67
2022-07-31T00:16:00.051Z,3.55
2022-07-31T00:19:02.258Z,4.43
2022-07-31T00:22:04.940Z,4.55
2022-07-31T00:25:07.806Z,4.82
2022-07-31T00:28:10.226Z,4.43
2022-07-31T00:31:12.460Z,5.28
2022-07-31T00:34:14.842Z,4.60
2022-07-31T00:37:17.091Z,4.85
2022-07-31T00:40:19.551Z,5.20
2022-07-31T00:43:22.297Z,5.10
2022-07-31T00:46:24.742Z,4.23
2022-07-31T00:49:37.242Z,4.62
2022-07-31T00:52:40.438Z,5.57
2022-07-31T00:55:51.284Z,4.78
2022-07-31T00:58:55.287Z,4.80
2022-07-31T01:05:00.087Z,4.47
2022-07-31T01:08:02.225Z,4.40
2022-07-31T01:11:19.464Z,4.65
2022-07-31T01:14:25.669Z,4.90
2022-07-31T01:17:31.077Z,4.32
2022-07-31T01:20:34.371Z,4.85
2022-07-31T01:23:55.878Z,4.15
2022-07-31T01:27:06.474Z,4.43
2022-07-31T01:30:09.357Z,4.10
2022-07-31T01:33:18.626Z,5.00
2022-07-31T01:36:25.689Z,3.70
2022-07-31T01:39:33.743Z,4.95
2022-07-31T01:42:39.450Z,2.95
2022-07-31T01:45:45.207Z,3.15
2022-07-31T01:48:50.031Z,3.58
2022-07-31T01:51:53.134Z,2.67
2022-07-31T01:54:59.726Z,2.50
2022-07-31T01:58:03.675Z,3.17
2022-07-31T02:01:09.305Z,2.58
2022-07-31T02:04:17.008Z,2.35
2022-07-31T02:07:20.439Z,2.75
2022-07-31T02:10:25.016Z,2.83
2022-07-31T02:13:28.633Z,3.12
2022-07-31T02:16:32.400Z,2.08
2022-07-31T02:19:38.709Z,2.12
2022-07-31T02:22:42.708Z,1.55
2022-07-31T02:25:47.591Z,2.45
2022-07-31T02:28:52.541Z,2.05
2022-07-31T02:32:03.126Z,2.28
2022-07-31T02:35:09.134Z,2.20
2022-07-31T02:38:18.086Z,2.30
2022-07-31T02:41:26.848Z,2.35
2022-07-31T02:44:31.894Z,2.28
2022-07-31T02:47:35.997Z,1.75
2022-07-31T02:50:39.503Z,2.53
2022-07-31T02:53:42.204Z,2.08
2022-07-31T02:56:46.623Z,2.22
2022-07-31T02:59:49.031Z,2.05
2022-07-31T03:02:53.773Z,2.40
2022-07-31T03:05:56.318Z,2.08
2022-07-31T03:08:59.233Z,2.10
2022-07-31T03:12:04.405Z,2.15
2022-07-31T03:15:11.312Z,2.72
2022-07-31T03:18:16.282Z,2.40
2022-07-31T03:21:20.102Z,2.70
2022-07-31T03:24:22.654Z,3.00
2022-07-31T03:27:25.835Z,2.10
2022-07-31T03:30:28.787Z,2.47
2022-07-31T03:33:31.678Z,2.83
2022-07-31T03:36:33.858Z,2.65
2022-07-31T03:39:36.248Z,2.55
2022-07-31T03:42:39.957Z,2.58
2022-07-31T03:45:43.988Z,2.97
2022-07-31T03:48:47.921Z,3.30
2022-07-31T03:51:50.429Z,2.55
2022-07-31T03:54:53.306Z,2.33
2022-07-31T03:57:56.019Z,2.90
2022-07-31T04:00:58.469Z,3.05
2022-07-31T04:04:01.963Z,3.00
2022-07-31T04:07:07.229Z,3.07
2022-07-31T04:10:10.125Z,2.80
2022-07-31T04:13:12.327Z,3.30
2022-07-31T04:16:15.602Z,3.17
2022-07-31T04:19:17.736Z,3.20
2022-07-31T04:22:20.168Z,2.90
2022-07-31T04:25:23.253Z,3.78
2022-07-31T04:28:27.068Z,3.70
2022-07-31T04:31:29.982Z,3.60
2022-07-31T04:34:33.299Z,3.45
2022-07-31T04:37:35.634Z,3.25
2022-07-31T04:40:38.510Z,3.80
2022-07-31T04:43:40.695Z,3.40
2022-07-31T04:46:45.122Z,3.37
2022-07-31T04:49:47.359Z,3.70
2022-07-31T04:52:50.152Z,3.58
2022-07-31T04:56:11.020Z,2.58
2022-07-31T04:59:15.801Z,2.40
2022-07-31T05:02:18.158Z,2.35
2022-07-31T05:05:20.545Z,2.53
2022-07-31T05:08:23.421Z,2.22
2022-07-31T05:11:26.027Z,2.42
2022-07-31T05:14:28.567Z,2.53
2022-07-31T05:17:31.111Z,2.70
2022-07-31T05:20:33.333Z,3.80
2022-07-31T05:23:36.717Z,2.80
2022-07-31T05:26:39.012Z,3.05
2022-07-31T05:29:41.980Z,2.85
2022-07-31T05:32:44.268Z,3.10
2022-07-31T05:35:46.680Z,3.10
2022-07-31T05:38:48.846Z,3.00
2022-07-31T05:44:55.509Z,2.80
2022-07-31T05:47:58.450Z,3.45
2022-07-31T05:51:05.080Z,3.05
2022-07-31T05:54:07.903Z,3.25
2022-07-31T05:57:32.923Z,3.53
2022-07-31T06:00:37.510Z,3.30
2022-07-31T06:03:51.481Z,3.17
2022-07-31T06:06:54.693Z,2.90
2022-07-31T06:09:57.289Z,3.45
2022-07-31T06:12:59.496Z,5.18
2022-07-31T06:16:01.894Z,2.72
2022-07-31T06:19:04.052Z,3.12
2022-07-31T06:22:07.159Z,3.50
2022-07-31T06:25:10.682Z,3.50
2022-07-31T06:28:15.677Z,2.95
2022-07-31T06:31:21.489Z,3.62
2022-07-31T06:34:24.526Z,3.40
2022-07-31T06:37:26.813Z,2.83
2022-07-31T06:40:29.462Z,3.33
2022-07-31T06:43:37.626Z,3.35
2022-07-31T06:46:48.780Z,2.78
2022-07-31T06:49:53.757Z,3.25
2022-07-31T06:52:58.182Z,2.85
2022-07-31T06:56:00.507Z,3.05
2022-07-31T06:59:03.770Z,3.17
2022-07-31T07:02:08.083Z,3.28
2022-07-31T07:05:10.712Z,2.80
2022-07-31T07:08:12.842Z,3.53
2022-07-31T07:14:18.916Z,2.70
2022-07-31T07:17:23.866Z,3.37
2022-07-31T07:20:29.343Z,2.15
2022-07-31T07:23:33.172Z,3.00
2022-07-31T07:26:36.451Z,2.72
2022-07-31T07:29:38.908Z,2.72
2022-07-31T07:32:45.140Z,2.83
2022-07-31T07:35:47.912Z,2.42
2022-07-31T07:38:54.785Z,2.03
2022-07-31T07:41:58.051Z,2.37
2022-07-31T07:45:00.321Z,1.92
2022-07-31T07:48:06.746Z,2.70
2022-07-31T07:51:10.715Z,2.00
2022-07-31T07:54:14.294Z,1.92
2022-07-31T07:57:21.796Z,2.28
2022-07-31T08:00:26.191Z,2.20
2022-07-31T08:03:49.099Z,2.30
2022-07-31T08:06:51.883Z,2.12
2022-07-31T08:09:55.904Z,2.22
2022-07-31T08:12:59.659Z,2.70
2022-07-31T08:16:03.660Z,2.10
2022-07-31T08:19:05.965Z,1.83
2022-07-31T08:22:10.621Z,1.90
2022-07-31T08:25:15.109Z,1.83
2022-07-31T08:28:19.283Z,1.80
2022-07-31T08:31:22.050Z,1.73
2022-07-31T08:34:31.489Z,2.05
2022-07-31T08:38:02.333Z,2.33
2022-07-31T08:40:57.453Z,2.17
2022-07-31T08:44:04.191Z,2.58
2022-07-31T08:47:12.655Z,2.05
2022-07-31T08:50:15.580Z,1.92
2022-07-31T08:53:22.680Z,1.60
2022-07-31T08:56:25.946Z,1.58
2022-07-31T08:59:28.470Z,1.67
2022-07-31T09:02:32.342Z,1.83
2022-07-31T09:05:41.780Z,1.42
2022-07-31T09:08:46.058Z,1.58
2022-07-31T09:11:50.421Z,1.77
2022-07-31T09:14:54.058Z,1.30
2022-07-31T09:17:57.264Z,1.90
2022-07-31T09:21:05.576Z,1.52
2022-07-31T09:24:10.246Z,1.45
2022-07-31T09:27:14.484Z,1.10
2022-07-31T09:30:17.255Z,1.60
2022-07-31T09:36:25.999Z,1.60
2022-07-31T09:42:44.320Z,1.60
2022-07-31T09:45:59.342Z,1.45
2022-07-31T09:49:01.780Z,1.40
2022-07-31T09:52:04.424Z,1.70
2022-07-31T09:55:15.804Z,1.83
2022-07-31T09:58:18.999Z,1.50
2022-07-31T10:01:21.978Z,1.40
2022-07-31T10:04:25.171Z,1.65
2022-07-31T10:07:32.869Z,2.00
2022-07-31T10:10:37.160Z,1.83
2022-07-31T10:13:45.705Z,1.58
2022-07-31T10:16:48.912Z,1.40
2022-07-31T10:19:57.877Z,2.10
2022-07-31T10:23:06.706Z,1.35
2022-07-31T10:26:09.493Z,2.00
2022-07-31T10:29:12.030Z,2.42
2022-07-31T10:32:14.825Z,1.87
2022-07-31T10:35:20.492Z,1.87
2022-07-31T10:38:30.414Z,1.85
2022-07-31T10:41:36.407Z,1.67
2022-07-31T10:44:46.978Z,2.33
2022-07-31T10:47:56.727Z,2.10
2022-07-31T10:51:09.540Z,2.15
2022-07-31T10:54:14.100Z,2.37
2022-07-31T10:57:22.940Z,2.20
2022-07-31T11:00:29.994Z,2.00
2022-07-31T11:03:41.787Z,2.05
2022-07-31T11:06:46.657Z,2.55
2022-07-31T11:09:51.137Z,2.17
2022-07-31T11:13:00.777Z,1.95
2022-07-31T11:16:05.743Z,2.40
2022-07-31T11:19:13.430Z,2.05
2022-07-31T11:22:31.245Z,2.20
2022-07-31T11:25:36.648Z,2.08
2022-07-31T11:28:38.757Z,1.98
2022-07-31T11:31:41.161Z,3.25
2022-07-31T11:34:53.326Z,2.12
2022-07-31T11:37:58.368Z,2.85
2022-07-31T11:41:02.894Z,3.05
2022-07-31T11:44:05.682Z,3.00
2022-07-31T11:48:09.508Z,1.98
2022-07-31T11:50:39.617Z,2.40
2022-07-31T11:53:42.313Z,2.20
2022-07-31T11:56:44.788Z,1.70
2022-07-31T11:59:49.637Z,1.60
2022-07-31T12:02:52.360Z,2.05
2022-07-31T12:05:54.991Z,2.10
2022-07-31T12:08:57.218Z,2.25
2022-07-31T12:12:01.017Z,2.10
2022-07-31T12:18:15.327Z,1.77
2022-07-31T12:21:19.322Z,2.03
2022-07-31T12:24:23.227Z,2.10
2022-07-31T12:27:25.450Z,2.20
2022-07-31T12:30:30.101Z,2.10
2022-07-31T12:33:43.103Z,2.00
2022-07-31T12:36:45.540Z,2.05
2022-07-31T12:40:00.395Z,2.10
2022-07-31T12:43:03.839Z,1.73
2022-07-31T12:46:06.026Z,1.58
2022-07-31T12:49:08.649Z,1.90
2022-07-31T12:52:11.603Z,2.30
2022-07-31T12:55:14.974Z,1.75
2022-07-31T12:58:19.984Z,1.58
2022-07-31T13:01:22.491Z,1.77
2022-07-31T13:04:24.669Z,2.00
2022-07-31T13:07:27.806Z,2.00
2022-07-31T13:10:31.966Z,2.25
2022-07-31T13:13:34.922Z,1.80
2022-07-31T13:16:37.069Z,2.05
2022-07-31T13:19:39.454Z,1.45
2022-07-31T13:22:41.577Z,1.70
2022-07-31T13:25:43.978Z,1.45
2022-07-31T13:28:46.427Z,1.67
2022-07-31T13:31:48.807Z,1.70
2022-07-31T13:35:26.389Z,1.77
2022-07-31T13:38:14.713Z,1.70
2022-07-31T13:41:28.294Z,1.57
2022-07-31T13:44:30.919Z,1.67
2022-07-31T13:47:50.224Z,1.60
2022-07-31T13:50:54.350Z,1.65
2022-07-31T13:53:56.645Z,2.03
2022-07-31T13:56:59.035Z,1.50
2022-07-31T14:00:01.185Z,1.55
2022-07-31T14:03:03.825Z,1.75
2022-07-31T14:06:06.539Z,2.37
2022-07-31T14:09:09.433Z,1.75
2022-07-31T14:12:12.080Z,1.75
2022-07-31T14:15:18.398Z,1.30
2022-07-31T14:21:24.342Z,1.70
2022-07-31T14:24:27.011Z,1.55
2022-07-31T14:27:29.338Z,1.15
2022-07-31T14:30:32.413Z,1.43
2022-07-31T14:33:34.516Z,1.35
2022-07-31T14:36:36.923Z,1.52
2022-07-31T14:39:42.672Z,1.90
2022-07-31T14:42:45.507Z,1.40
2022-07-31T14:45:51.762Z,1.55
2022-07-31T14:48:54.476Z,1.80
2022-07-31T14:51:56.651Z,1.50
2022-07-31T14:55:00.435Z,1.75
2022-07-31T15:01:05.077Z,1.60
2022-07-31T15:04:07.258Z,2.95
2022-07-31T15:07:33.526Z,2.30
2022-07-31T15:10:31.858Z,1.77
2022-07-31T15:13:38.610Z,1.60
2022-07-31T15:16:41.657Z,2.05
2022-07-31T15:19:44.113Z,2.65
2022-07-31T15:22:46.223Z,1.80
2022-07-31T15:25:48.599Z,1.73
2022-07-31T15:28:50.768Z,2.10
2022-07-31T15:31:53.189Z,1.92
2022-07-31T15:34:55.378Z,1.58
2022-07-31T15:38:02.235Z,2.10
2022-07-31T15:41:04.411Z,1.77
2022-07-31T15:44:06.819Z,1.93
2022-07-31T15:47:09.013Z,1.90
2022-07-31T15:50:14.029Z,2.60
2022-07-31T15:53:16.155Z,2.05
2022-07-31T15:56:18.675Z,2.00
2022-07-31T15:59:20.857Z,2.12
2022-07-31T16:02:24.422Z,2.13
2022-07-31T16:05:37.064Z,1.98
2022-07-31T16:08:41.109Z,2.12
2022-07-31T16:12:04.644Z,2.43
2022-07-31T16:15:07.971Z,2.05
2022-07-31T16:18:10.492Z,2.20
2022-07-31T16:21:20.726Z,2.08
2022-07-31T16:24:23.133Z,2.28
2022-07-31T16:27:25.340Z,2.17
2022-07-31T16:30:27.783Z,2.65
2022-07-31T16:33:29.971Z,2.72
2022-07-31T16:36:32.624Z,2.47
2022-07-31T16:39:34.785Z,2.50
2022-07-31T16:42:37.187Z,2.47
2022-07-31T16:45:39.331Z,2.10
2022-07-31T16:48:41.819Z,2.20
2022-07-31T16:51:43.939Z,2.92
2022-07-31T16:54:46.679Z,2.83
2022-07-31T16:57:48.843Z,3.05
2022-07-31T17:00:51.509Z,3.12
2022-07-31T17:04:00.045Z,2.40
2022-07-31T17:07:04.883Z,3.50
2022-07-31T17:10:07.874Z,3.03
2022-07-31T17:13:10.260Z,2.65
2022-07-31T17:16:12.372Z,3.03
2022-07-31T17:19:15.475Z,3.33
2022-07-31T17:25:22.242Z,3.10
2022-07-31T17:28:24.362Z,1.92
2022-07-31T17:31:26.773Z,2.60
2022-07-31T17:34:28.952Z,2.60
2022-07-31T17:37:31.444Z,2.97
2022-07-31T17:40:43.427Z,3.30
2022-07-31T17:43:50.543Z,2.35
2022-07-31T17:46:55.495Z,2.85
2022-07-31T17:50:00.585Z,3.25
2022-07-31T17:53:04.171Z,2.45
2022-07-31T17:56:10.098Z,2.83
2022-07-31T17:59:15.200Z,3.00
2022-07-31T18:02:17.674Z,2.92
2022-07-31T18:05:20.171Z,2.73
2022-07-31T18:08:22.320Z,2.85
2022-07-31T18:11:24.933Z,2.80
2022-07-31T18:14:27.168Z,2.83
2022-07-31T18:17:31.236Z,3.03
2022-07-31T18:20:33.627Z,3.08
2022-07-31T18:23:36.102Z,2.58
2022-07-31T18:26:38.417Z,2.70
2022-07-31T18:29:41.039Z,2.40
2022-07-31T18:32:43.142Z,2.90
2022-07-31T18:38:48.654Z,2.95
2022-07-31T18:41:51.285Z,2.47
2022-07-31T18:44:53.539Z,2.97
2022-07-31T18:47:56.027Z,3.20
2022-07-31T18:51:04.463Z,3.05
2022-07-31T18:54:07.707Z,3.00
2022-07-31T18:57:09.942Z,4.00
2022-07-31T19:00:12.675Z,3.27
2022-07-31T19:03:14.796Z,3.33
2022-07-31T19:06:17.344Z,2.87
2022-07-31T19:09:19.889Z,3.12
2022-07-31T19:12:22.946Z,3.28
2022-07-31T19:15:25.176Z,3.20
2022-07-31T19:18:28.467Z,3.10
2022-07-31T19:24:44.911Z,2.97
2022-07-31T19:27:50.245Z,3.03
2022-07-31T19:30:53.834Z,2.55
2022-07-31T19:33:55.989Z,2.85
2022-07-31T19:36:58.471Z,2.70
2022-07-31T19:40:00.842Z,3.20
2022-07-31T19:43:03.276Z,2.70
2022-07-31T19:46:11.922Z,2.60
2022-07-31T19:49:14.869Z,2.72
2022-07-31T19:52:17.143Z,2.70
2022-07-31T19:55:19.594Z,3.40
2022-07-31T19:58:21.791Z,2.58
2022-07-31T20:01:24.267Z,2.60
2022-07-31T20:04:26.824Z,2.35
2022-07-31T20:07:32.662Z,2.28
2022-07-31T20:10:35.590Z,3.08
2022-07-31T20:13:38.539Z,2.83
2022-07-31T20:16:41.193Z,2.03
2022-07-31T20:20:14.975Z,2.78
2022-07-31T20:23:06.280Z,2.83
2022-07-31T20:26:12.024Z,2.60
2022-07-31T20:29:14.414Z,2.50
2022-07-31T20:32:16.537Z,2.62
2022-07-31T20:35:33.072Z,2.78
2022-07-31T20:38:47.955Z,2.25
2022-07-31T20:41:50.655Z,2.80
2022-07-31T20:44:52.766Z,1.75
2022-07-31T20:47:56.717Z,2.15
2022-07-31T20:51:01.282Z,2.22
2022-07-31T20:54:04.359Z,2.20
2022-07-31T20:57:06.635Z,2.20
2022-07-31T21:00:09.581Z,2.13
2022-07-31T21:03:11.689Z,2.47
2022-07-31T21:06:14.151Z,2.20
2022-07-31T21:09:16.355Z,2.10
2022-07-31T21:12:18.809Z,1.90
2022-07-31T21:15:41.938Z,2.55
2022-07-31T21:18:43.840Z,2.40
2022-07-31T21:21:46.007Z,2.30
2022-07-31T21:24:48.583Z,2.03
2022-07-31T21:27:50.750Z,2.08
2022-07-31T21:30:55.788Z,2.35
2022-07-31T21:33:58.385Z,2.03
2022-07-31T21:37:01.670Z,2.15
2022-07-31T21:43:08.008Z,2.12
2022-07-31T21:46:15.255Z,2.20
2022-07-31T21:49:21.556Z,2.60
2022-07-31T21:52:23.933Z,2.95
2022-07-31T21:55:26.358Z,2.07
2022-07-31T21:58:28.487Z,2.12
2022-07-31T22:01:30.926Z,2.22
2022-07-31T22:04:34.756Z,1.97
2022-07-31T22:07:44.688Z,2.90
2022-07-31T22:10:49.307Z,1.98
2022-07-31T22:13:51.398Z,2.70
2022-07-31T22:16:53.835Z,2.58
2022-07-31T22:19:58.644Z,2.50
2022-07-31T22:23:01.346Z,1.87
2022-07-31T22:26:04.392Z,1.93
2022-07-31T22:29:07.063Z,2.30
2022-07-31T22:32:09.733Z,2.33
2022-07-31T22:35:13.313Z,2.50
2022-07-31T22:38:16.114Z,2.70
2022-07-31T22:41:18.522Z,2.00
2022-07-31T22:44:23.037Z,2.10
2022-07-31T22:47:27.416Z,2.25
2022-07-31T22:50:29.649Z,2.00
2022-07-31T22:53:32.072Z,2.08
2022-07-31T22:56:34.199Z,1.92
2022-07-31T22:59:36.597Z,2.00
2022-07-31T23:02:40.192Z,2.90
2022-07-31T23:06:03.049Z,2.10
2022-07-31T23:09:04.823Z,2.03
2022-07-31T23:12:07.951Z,2.30
2022-07-31T23:15:10.590Z,2.05
2022-07-31T23:18:12.974Z,2.33
2022-07-31T23:21:15.278Z,2.45
2022-07-31T23:24:17.772Z,2.30
2022-07-31T23:27:19.882Z,2.15
2022-07-31T23:30:24.116Z,2.45
2022-07-31T23:33:26.280Z,2.45
2022-07-31T23:36:28.661Z,2.00
2022-07-31T23:39:32.418Z,2.25
2022-07-31T23:42:40.514Z,2.83
2022-07-31T23:45:42.611Z,2.22
2022-07-31T23:48:46.608Z,2.45
2022-07-31T23:51:49.046Z,2.37
2022-07-31T23:54:51.459Z,2.17
2022-07-31T23:57:53.622Z,2.15
